Time;durP1;ratioP1;P1;durP2;ratioP2;P2;SDS_P1;SDS_P2;PMS_P1;PMS_P2;Temp;Humidity;BMP_temperature;BMP_pressure;BME280_temperature;BME280_humidity;BME280_pressure;Samples;Min_cycle;Max_cycle;Signal;HPM_P1;HPM_P2
2021/01/11 00:02:05;;;;;;;8.82;4.15;;;;;;;7.29;68.34;93391.09;4955572;28;20496;-77
2021/01/11 00:04:31;;;;;;;4.97;3.50;;;;;;;7.33;68.16;93402.63;4950058;28;20031;-77
2021/01/11 00:06:57;;;;;;;3.97;3.33;;;;;;;7.33;68.19;93407.13;4955307;28;20053;-76
2021/01/11 00:09:23;;;;;;;7.03;3.35;;;;;;;7.28;68.11;93394.03;4954240;28;20059;-76
2021/01/11 00:11:49;;;;;;;8.50;3.65;;;;;;;7.30;68.23;93392.69;4960092;28;20026;-76
2021/01/11 00:14:14;;;;;;;4.45;3.00;;;;;;;7.30;68.19;93386.63;4952727;28;20038;-76
2021/01/11 00:16:40;;;;;;;5.43;3.63;;;;;;;7.32;67.88;93393.19;4950684;28;20038;-76
2021/01/11 00:19:05;;;;;;;4.28;2.83;;;;;;;7.24;67.53;93382.47;4954829;28;20138;-77
2021/01/11 00:21:31;;;;;;;4.18;2.95;;;;;;;7.21;67.79;93377.78;4958814;28;20130;-77
2021/01/11 00:23:56;;;;;;;3.17;2.53;;;;;;;7.26;67.61;93375.13;4954087;28;20385;-76
2021/01/11 00:26:22;;;;;;;4.15;2.72;;;;;;;7.38;67.59;93388.66;4958317;28;21165;-76
2021/01/11 00:28:48;;;;;;;3.33;2.88;;;;;;;7.35;67.52;93379.47;4954925;28;20172;-76
2021/01/11 00:31:24;;;;;;;3.22;2.03;;;;;;;7.42;67.26;93391.53;4955833;28;20078;-76
2021/01/11 00:33:51;;;;;;;5.22;2.40;;;;;;;7.40;67.39;93387.31;4956406;28;20143;-77
2021/01/11 00:36:17;;;;;;;3.50;2.45;;;;;;;7.44;67.72;93402.53;4954447;28;20042;-77
2021/01/11 00:38:42;;;;;;;3.25;2.10;;;;;;;7.44;67.25;93387.53;4957878;28;20090;-78
2021/01/11 00:41:08;;;;;;;3.10;2.20;;;;;;;7.41;67.16;93367.06;4951191;28;20079;-76
2021/01/11 00:43:33;;;;;;;3.15;2.47;;;;;;;7.40;67.19;93363.66;4952536;28;20051;-76
2021/01/11 00:45:59;;;;;;;3.65;2.08;;;;;;;7.45;67.17;93360.19;4954007;28;20046;-76
2021/01/11 00:48:24;;;;;;;5.57;2.78;;;;;;;7.40;67.22;93340.00;4954274;28;20074;-76
2021/01/11 00:50:50;;;;;;;2.63;2.13;;;;;;;7.37;67.21;93342.41;4957613;28;20042;-76
2021/01/11 00:53:15;;;;;;;2.08;1.77;;;;;;;7.38;67.22;93342.13;4954801;28;20077;-77
2021/01/11 00:55:41;;;;;;;3.55;2.40;;;;;;;7.45;66.88;93336.53;4972538;28;20423;-77
2021/01/11 00:58:06;;;;;;;2.88;2.38;;;;;;;7.35;67.28;93337.44;4969893;28;20507;-76
2021/01/11 01:00:32;;;;;;;2.72;2.17;;;;;;;7.24;67.61;93329.91;4954058;28;20070;-76
2021/01/11 01:02:57;;;;;;;3.63;2.53;;;;;;;7.29;67.89;93301.75;4951909;28;20034;-76
2021/01/11 01:05:22;;;;;;;5.07;3.90;;;;;;;7.33;67.58;93310.63;4958536;28;20046;-76
2021/01/11 01:07:48;;;;;;;2.92;2.63;;;;;;;7.30;67.94;93313.81;4949165;28;20046;-76
2021/01/11 01:10:14;;;;;;;2.70;2.22;;;;;;;7.23;68.09;93317.88;4955067;28;21168;-76
2021/01/11 01:12:40;;;;;;;4.70;2.78;;;;;;;7.17;68.22;93318.97;4953404;28;20035;-76
2021/01/11 01:15:08;;;;;;;4.47;3.17;;;;;;;7.10;68.87;93282.50;4968531;28;20453;-77
2021/01/11 01:17:37;;;;;;;3.45;2.78;;;;;;;7.10;69.02;93281.72;4958896;28;20019;-76
2021/01/11 01:20:14;;;;;;;4.65;2.80;;;;;;;6.96;69.21;93271.88;4951069;28;20649;-76
2021/01/11 01:22:40;;;;;;;3.65;2.28;;;;;;;6.91;69.87;93271.16;4954580;28;20039;-77
2021/01/11 01:25:06;;;;;;;4.03;1.80;;;;;;;6.85;69.70;93272.25;4953178;28;20062;-76
2021/01/11 01:27:31;;;;;;;2.33;1.95;;;;;;;6.88;70.11;93295.34;4953369;28;20049;-75
2021/01/11 01:29:57;;;;;;;3.50;2.00;;;;;;;6.83;70.38;93303.28;4951786;28;20062;-76
2021/01/11 01:32:22;;;;;;;4.70;2.20;;;;;;;6.95;70.37;93316.81;4957095;28;20041;-76
2021/01/11 01:34:47;;;;;;;3.80;1.67;;;;;;;7.02;70.33;93337.50;4955681;28;20042;-76
2021/01/11 01:37:13;;;;;;;4.10;2.08;;;;;;;7.11;69.98;93351.59;4952101;28;20387;-76
2021/01/11 01:39:38;;;;;;;3.80;1.95;;;;;;;7.20;69.63;93357.81;4950880;28;20085;-77
2021/01/11 01:42:04;;;;;;;2.08;1.83;;;;;;;7.28;69.20;93376.38;4953227;28;20034;-76
2021/01/11 01:44:29;;;;;;;3.10;1.73;;;;;;;7.32;69.02;93369.53;4955005;28;20023;-76
2021/01/11 01:46:54;;;;;;;2.92;2.00;;;;;;;7.50;68.77;93383.00;4954388;28;20038;-75
2021/01/11 01:49:20;;;;;;;6.80;2.40;;;;;;;7.56;68.61;93402.94;4956175;28;20575;-76
2021/01/11 01:51:45;;;;;;;14.57;8.63;;;;;;;7.59;68.89;93431.31;4954616;28;20570;-75
2021/01/11 01:54:11;;;;;;;7.88;4.43;;;;;;;7.49;68.52;93455.06;4951903;28;20125;-77
2021/01/11 01:56:37;;;;;;;4.85;3.05;;;;;;;7.49;68.79;93469.00;4962236;28;20374;-77
2021/01/11 01:59:03;;;;;;;4.53;3.38;;;;;;;7.52;68.88;93480.81;4953941;28;20035;-76
2021/01/11 02:01:29;;;;;;;8.05;4.75;;;;;;;7.56;68.55;93487.09;4951764;28;20066;-76
2021/01/11 02:03:54;;;;;;;4.75;3.60;;;;;;;7.35;68.98;93468.84;4949261;28;20039;-77
2021/01/11 02:06:21;;;;;;;6.10;4.25;;;;;;;7.44;69.08;93458.53;4954333;28;20480;-76
2021/01/11 02:08:53;;;;;;;8.75;6.20;;;;;;;7.48;69.17;93467.41;4957453;28;20035;-77
2021/01/11 02:11:24;;;;;;;10.75;7.13;;;;;;;7.49;69.23;93471.63;4952391;28;20392;-76
2021/01/11 02:13:53;;;;;;;8.45;7.00;;;;;;;7.53;68.94;93475.25;4950088;28;20047;-76
2021/01/11 02:16:28;;;;;;;12.55;9.15;;;;;;;7.53;68.63;93482.38;4952091;28;20073;-76
2021/01/11 02:19:15;;;;;;;14.10;10.32;;;;;;;7.55;68.62;93480.25;4953263;28;20034;-76
2021/01/11 02:22:03;;;;;;;11.27;9.75;;;;;;;7.49;68.76;93494.50;4948366;28;20046;-76
2021/01/11 02:24:55;;;;;;;14.60;9.43;;;;;;;7.50;68.75;93501.34;4956942;28;20101;-77
2021/01/11 02:27:33;;;;;;;15.13;9.35;;;;;;;7.46;68.99;93497.69;4952319;28;20042;-76
2021/01/11 02:30:16;;;;;;;12.95;9.48;;;;;;;7.48;68.77;93517.38;4974374;28;20055;-76
2021/01/11 02:32:49;;;;;;;13.88;9.40;;;;;;;7.44;68.53;93528.72;4954931;28;20447;-76
2021/01/11 02:35:17;;;;;;;12.38;7.68;;;;;;;7.42;68.64;93525.59;4973410;28;20058;-76
2021/01/11 02:37:44;;;;;;;9.75;7.78;;;;;;;7.47;68.38;93565.00;4969666;28;20043;-77
2021/01/11 02:40:10;;;;;;;8.02;6.90;;;;;;;7.36;68.62;93591.34;4958725;28;20058;-77
2021/01/11 02:42:37;;;;;;;8.20;6.88;;;;;;;7.36;68.57;93615.00;4956157;28;20121;-77
2021/01/11 02:45:05;;;;;;;7.13;6.32;;;;;;;7.31;68.56;93619.50;4958022;28;20034;-76
2021/01/11 02:48:05;;;;;;;7.53;6.15;;;;;;;7.29;68.64;93618.97;4960884;28;20054;-76
2021/01/11 02:50:40;;;;;;;7.57;4.85;;;;;;;7.23;68.59;93601.69;4971371;28;20051;-76
2021/01/11 02:53:21;;;;;;;6.43;4.85;;;;;;;7.15;68.46;93563.63;4956582;28;20043;-76
2021/01/11 02:55:56;;;;;;;3.72;3.28;;;;;;;7.07;67.95;93556.31;4969938;28;20097;-76
2021/01/11 02:58:52;;;;;;;4.00;3.30;;;;;;;7.12;68.09;93543.16;4959612;28;20045;-76
2021/01/11 03:01:18;;;;;;;3.20;2.50;;;;;;;7.13;67.87;93515.03;4969250;28;20406;-77
2021/01/11 03:03:51;;;;;;;3.28;2.97;;;;;;;7.13;67.83;93492.19;4957248;28;20045;-76
2021/01/11 03:06:16;;;;;;;3.70;2.83;;;;;;;6.97;67.35;93467.84;4967489;28;20408;-77
2021/01/11 03:08:42;;;;;;;2.90;2.58;;;;;;;7.01;67.59;93460.19;4956526;28;20514;-77
2021/01/11 03:11:08;;;;;;;3.00;2.70;;;;;;;7.08;67.70;93446.75;4954103;28;20039;-76
2021/01/11 03:13:33;;;;;;;3.20;2.58;;;;;;;7.07;67.83;93439.94;4952419;28;20046;-76
2021/01/11 03:15:58;;;;;;;1.80;1.70;;;;;;;7.02;68.10;93413.69;4956279;28;20041;-77
2021/01/11 03:18:24;;;;;;;5.45;2.22;;;;;;;7.07;68.14;93419.69;4957676;28;20034;-77
2021/01/11 03:20:49;;;;;;;4.10;3.15;;;;;;;7.05;68.10;93392.91;4977420;28;20157;-77
2021/01/11 03:23:15;;;;;;;4.55;3.30;;;;;;;6.98;68.62;93389.81;4949397;28;20035;-77
2021/01/11 03:25:41;;;;;;;5.82;2.95;;;;;;;6.95;69.21;93374.59;4957156;28;20035;-77
2021/01/11 03:28:06;;;;;;;3.90;3.00;;;;;;;6.94;69.43;93371.19;4957381;28;20073;-77
2021/01/11 03:30:32;;;;;;;3.50;2.90;;;;;;;6.85;69.67;93341.31;4953911;28;20775;-77
2021/01/11 03:32:57;;;;;;;4.05;2.47;;;;;;;6.95;70.24;93348.31;4953724;28;20089;-77
2021/01/11 03:35:23;;;;;;;4.30;3.10;;;;;;;6.89;70.37;93333.69;4960198;28;20041;-77
2021/01/11 03:37:48;;;;;;;4.45;3.35;;;;;;;7.01;70.48;93336.72;4952000;28;20491;-77
2021/01/11 03:40:14;;;;;;;5.50;2.55;;;;;;;7.10;70.35;93339.53;4959468;28;20049;-77
2021/01/11 03:42:40;;;;;;;5.20;2.60;;;;;;;7.19;70.02;93341.28;4954572;28;20513;-77
2021/01/11 03:45:08;;;;;;;2.45;2.25;;;;;;;7.11;70.33;93339.25;4952855;28;20133;-77
2021/01/11 03:47:34;;;;;;;3.72;1.85;;;;;;;7.17;70.23;93327.63;4956155;28;20054;-77
2021/01/11 03:49:59;;;;;;;2.20;1.80;;;;;;;7.25;70.05;93324.38;4953062;28;20418;-77
2021/01/11 03:52:25;;;;;;;2.20;2.10;;;;;;;7.35;69.92;93326.91;4970697;28;20455;-76
2021/01/11 03:54:51;;;;;;;1.75;1.65;;;;;;;7.44;69.77;93324.44;4955464;28;20573;-76
2021/01/11 03:57:18;;;;;;;2.22;1.80;;;;;;;7.52;69.51;93325.69;4953648;28;20046;-76
2021/01/11 03:59:43;;;;;;;2.00;1.85;;;;;;;7.61;69.15;93350.31;4958604;28;20027;-76
2021/01/11 04:02:09;;;;;;;2.05;1.70;;;;;;;7.68;69.01;93369.94;4956187;28;20113;-75
2021/01/11 04:04:35;;;;;;;1.70;1.60;;;;;;;7.71;68.55;93402.78;4954485;28;20050;-75
2021/01/11 04:07:00;;;;;;;5.32;4.93;;;;;;;7.73;69.17;93422.47;4955991;28;20040;-74
2021/01/11 04:09:26;;;;;;;2.22;2.08;;;;;;;7.72;69.30;93435.91;4954420;28;20501;-75
2021/01/11 04:11:52;;;;;;;2.97;2.67;;;;;;;7.73;69.21;93445.34;4956643;28;20365;-74
2021/01/11 04:14:18;;;;;;;5.97;2.67;;;;;;;7.69;69.43;93436.47;4953339;28;20140;-75
2021/01/11 04:16:44;;;;;;;4.20;2.70;;;;;;;7.65;69.18;93414.41;4957765;28;20039;-75
2021/01/11 04:19:11;;;;;;;4.22;2.85;;;;;;;7.75;69.09;93432.72;4951118;28;20037;-76
2021/01/11 04:21:40;;;;;;;2.55;2.15;;;;;;;7.81;68.78;93432.41;4971481;28;20182;-75
2021/01/11 04:24:06;;;;;;;4.05;2.72;;;;;;;7.84;68.59;93404.72;4951060;28;20049;-74
2021/01/11 04:26:31;;;;;;;3.10;2.80;;;;;;;7.84;68.61;93367.91;4959891;28;20407;-74
2021/01/11 04:28:56;;;;;;;3.90;3.50;;;;;;;7.74;68.70;93371.44;4953123;28;20034;-75
2021/01/11 04:31:22;;;;;;;5.45;3.33;;;;;;;7.64;69.44;93374.19;4951899;28;20038;-76
2021/01/11 04:33:47;;;;;;;3.47;2.60;;;;;;;7.58;69.89;93375.28;4955301;28;20496;-77
2021/01/11 04:36:13;;;;;;;5.55;2.40;;;;;;;7.65;70.26;93380.22;4954533;28;20495;-77
2021/01/11 04:38:39;;;;;;;10.65;7.47;;;;;;;7.58;70.74;93253.56;4956384;28;20395;-77
2021/01/11 04:41:05;;;;;;;9.57;6.53;;;;;;;7.38;73.01;93152.88;4952392;28;20039;-76
2021/01/11 04:43:35;;;;;;;12.00;8.52;;;;;;;7.42;73.20;93179.38;4955836;28;20050;-76
2021/01/11 04:46:01;;;;;;;12.60;6.65;;;;;;;7.34;72.70;93193.13;4954929;28;20046;-76
2021/01/11 04:48:26;;;;;;;14.18;7.18;;;;;;;7.31;73.52;93168.22;4953676;28;20049;-76
2021/01/11 04:50:52;;;;;;;12.23;6.88;;;;;;;7.37;73.51;93213.63;4956647;28;20476;-78
2021/01/11 04:53:20;;;;;;;17.00;8.13;;;;;;;7.44;72.91;93224.56;4954600;28;20046;-77
2021/01/11 04:55:46;;;;;;;9.93;5.30;;;;;;;7.53;72.83;93222.84;4954063;28;20031;-78
2021/01/11 04:58:12;;;;;;;5.57;4.32;;;;;;;7.41;72.96;93217.25;4952500;28;20043;-78
2021/01/11 05:00:39;;;;;;;4.78;3.28;;;;;;;7.49;72.64;93242.09;4955495;28;20041;-77
2021/01/11 05:03:07;;;;;;;5.00;2.95;;;;;;;7.63;71.82;93270.06;4953139;28;20093;-76
2021/01/11 05:05:37;;;;;;;14.93;8.48;;;;;;;7.67;71.77;93254.50;4953870;28;20093;-77
2021/01/11 05:08:03;;;;;;;6.30;4.40;;;;;;;7.63;72.15;93248.22;4952798;28;20048;-77
2021/01/11 05:10:34;;;;;;;4.75;3.28;;;;;;;7.70;71.06;93275.75;4954623;28;20034;-77
2021/01/11 05:13:02;;;;;;;2.17;1.75;;;;;;;7.80;70.21;93295.88;4953200;28;20388;-76
2021/01/11 05:15:33;;;;;;;3.20;2.90;;;;;;;7.81;70.36;93285.09;4953924;28;20042;-77
2021/01/11 05:17:59;;;;;;;2.33;2.13;;;;;;;7.89;70.02;93309.19;4953011;28;20031;-77
2021/01/11 05:20:29;;;;;;;2.65;2.25;;;;;;;7.87;70.03;93290.28;4953410;28;20168;-77
2021/01/11 05:22:57;;;;;;;14.43;6.40;;;;;;;7.90;69.98;93290.50;4952135;28;20951;-76
2021/01/11 05:25:25;;;;;;;6.25;3.60;;;;;;;7.96;69.80;93299.09;4952062;28;20039;-75
2021/01/11 05:28:09;;;;;;;4.13;3.08;;;;;;;7.94;69.44;93290.69;4967444;28;20047;-76
2021/01/11 05:30:41;;;;;;;7.75;5.35;;;;;;;7.97;69.25;93309.31;4950123;28;20447;-74
2021/01/11 05:33:19;;;;;;;4.65;3.20;;;;;;;7.87;69.41;93300.81;4955442;28;20926;-78
2021/01/11 05:36:06;;;;;;;5.47;3.20;;;;;;;7.70;70.23;93331.00;4971818;28;20038;-77
2021/01/11 05:38:34;;;;;;;7.05;5.30;;;;;;;7.78;70.53;93334.84;4955993;28;20528;-77
2021/01/11 05:41:15;;;;;;;7.35;5.95;;;;;;;7.73;70.44;93342.78;4953240;28;20487;-77
2021/01/11 05:43:41;;;;;;;6.50;4.68;;;;;;;7.80;70.30;93335.34;4951715;28;20070;-77
2021/01/11 05:46:26;;;;;;;3.22;2.90;;;;;;;7.85;69.93;93330.03;4954096;28;20081;-77
2021/01/11 05:49:02;;;;;;;2.92;2.28;;;;;;;7.86;68.92;93342.13;4954920;28;20117;-75
2021/01/11 05:51:29;;;;;;;3.20;2.90;;;;;;;7.91;69.37;93342.06;4966302;28;20046;-75
2021/01/11 05:53:56;;;;;;;8.68;5.15;;;;;;;7.94;69.54;93317.78;4953018;28;21095;-76
2021/01/11 05:56:22;;;;;;;12.95;8.63;;;;;;;7.96;69.78;93314.91;4954434;28;20030;-75
2021/01/11 05:59:05;;;;;;;12.55;7.72;;;;;;;7.94;69.77;93312.53;4953214;28;20043;-75
2021/01/11 06:01:31;;;;;;;16.40;9.55;;;;;;;8.03;69.75;93331.88;4958520;28;20050;-77
2021/01/11 06:03:57;;;;;;;19.85;10.43;;;;;;;8.06;69.58;93333.19;4956722;28;20080;-77
2021/01/11 06:06:24;;;;;;;6.68;5.10;;;;;;;7.98;69.71;93337.22;4953376;28;20042;-77
2021/01/11 06:08:50;;;;;;;9.57;6.40;;;;;;;7.93;69.63;93342.53;4957203;28;20066;-78
2021/01/11 06:11:21;;;;;;;6.13;5.45;;;;;;;8.05;69.20;93339.50;4956412;28;20031;-77
2021/01/11 06:13:48;;;;;;;19.10;10.73;;;;;;;8.13;69.00;93341.50;4956367;28;20121;-77
2021/01/11 06:16:18;;;;;;;32.95;14.00;;;;;;;8.13;68.75;93363.31;4957966;28;20034;-77
2021/01/11 06:18:46;;;;;;;15.38;8.52;;;;;;;8.21;68.84;93380.31;4959734;28;20272;-77
2021/01/11 06:21:12;;;;;;;10.25;6.90;;;;;;;8.22;68.43;93385.31;4967961;28;20027;-77
2021/01/11 06:23:40;;;;;;;10.75;7.20;;;;;;;8.27;68.56;93390.50;4958824;28;20030;-77
2021/01/11 06:26:24;;;;;;;13.35;8.80;;;;;;;8.33;68.46;93403.63;4955411;28;20055;-77
2021/01/11 06:28:50;;;;;;;16.77;11.40;;;;;;;8.19;68.13;93385.88;4956694;28;29707;-75
2021/01/11 06:31:16;;;;;;;16.52;12.88;;;;;;;8.33;67.87;93390.47;4956200;28;20066;-78
2021/01/11 06:33:43;;;;;;;19.45;12.13;;;;;;;8.31;68.42;93400.53;4952531;28;20404;-77
2021/01/11 06:36:18;;;;;;;18.20;10.52;;;;;;;8.38;68.06;93411.47;4952435;28;20026;-77
2021/01/11 06:38:45;;;;;;;15.00;10.48;;;;;;;8.32;67.60;93391.53;4957160;28;20100;-77
2021/01/11 06:41:12;;;;;;;24.23;17.33;;;;;;;8.36;67.64;93392.53;4955642;28;20054;-77
2021/01/11 06:43:38;;;;;;;24.38;18.55;;;;;;;8.35;67.46;93396.25;4954246;28;20077;-77
2021/01/11 06:46:04;;;;;;;16.58;12.35;;;;;;;8.38;67.22;93385.13;4953904;28;20154;-76
2021/01/11 06:48:32;;;;;;;15.27;12.70;;;;;;;8.39;67.37;93376.97;4954725;28;20877;-77
2021/01/11 06:51:05;;;;;;;16.65;12.25;;;;;;;8.41;67.46;93374.03;4957966;28;20033;-76
2021/01/11 06:53:31;;;;;;;22.05;15.90;;;;;;;8.47;67.21;93383.44;4956336;28;20130;-77
2021/01/11 06:56:08;;;;;;;22.08;13.50;;;;;;;8.55;66.90;93398.59;4955528;28;20050;-77
2021/01/11 06:58:38;;;;;;;21.52;15.88;;;;;;;8.56;66.97;93408.06;4955081;28;20591;-77
2021/01/11 07:01:14;;;;;;;39.28;26.92;;;;;;;8.55;67.98;93411.78;4953466;28;20039;-76
2021/01/11 07:03:50;;;;;;;23.33;15.73;;;;;;;8.50;67.33;93414.47;4951087;28;20126;-74
2021/01/11 07:06:43;;;;;;;20.48;15.13;;;;;;;8.58;67.16;93440.16;4949720;28;20132;-74
2021/01/11 07:09:19;;;;;;;19.23;13.15;;;;;;;8.52;67.02;93439.44;4952049;28;20030;-74
2021/01/11 07:11:47;;;;;;;15.25;12.65;;;;;;;8.46;66.93;93445.06;4954884;28;20034;-75
2021/01/11 07:14:14;;;;;;;15.73;11.80;;;;;;;8.49;66.82;93444.50;4954215;28;20038;-75
2021/01/11 07:16:52;;;;;;;16.75;12.80;;;;;;;8.54;66.74;93441.81;4950046;28;20046;-75
2021/01/11 07:19:21;;;;;;;16.27;13.60;;;;;;;8.54;66.47;93439.97;4952711;28;20063;-74
2021/01/11 07:21:49;;;;;;;20.25;15.60;;;;;;;8.55;66.41;93446.78;4953485;28;20082;-76
2021/01/11 07:24:14;;;;;;;21.20;15.32;;;;;;;8.57;66.39;93446.50;4953868;28;20049;-76
2021/01/11 07:26:40;;;;;;;24.23;19.02;;;;;;;8.57;66.50;93449.13;4957345;28;20027;-76
2021/01/11 07:29:11;;;;;;;21.83;17.27;;;;;;;8.60;66.45;93461.75;4967557;28;20643;-75
2021/01/11 07:31:42;;;;;;;17.70;14.10;;;;;;;8.68;66.22;93463.72;4951859;28;20035;-76
2021/01/11 07:34:14;;;;;;;14.63;11.93;;;;;;;8.65;66.19;93474.81;4950746;28;20046;-76
2021/01/11 07:36:44;;;;;;;15.77;11.88;;;;;;;8.63;66.10;93477.75;4951108;28;20835;-76
2021/01/11 07:39:10;;;;;;;13.88;10.80;;;;;;;8.70;66.00;93486.06;4950918;28;21190;-75
2021/01/11 07:41:41;;;;;;;11.30;8.95;;;;;;;8.73;65.94;93476.06;4955774;28;20624;-76
2021/01/11 07:44:34;;;;;;;13.32;9.75;;;;;;;8.73;65.97;93511.09;4947217;28;20051;-75
2021/01/11 07:47:00;;;;;;;14.95;10.10;;;;;;;8.83;65.66;93513.59;4946625;28;20412;-76
2021/01/11 07:49:32;;;;;;;11.15;8.70;;;;;;;8.84;65.69;93509.91;4951513;28;20038;-75
2021/01/11 07:52:24;;;;;;;13.90;10.07;;;;;;;8.88;65.42;93531.97;4968318;28;20073;-76
2021/01/11 07:55:00;;;;;;;15.90;10.70;;;;;;;8.83;65.48;93524.13;4952693;28;20043;-75
2021/01/11 07:57:31;;;;;;;13.18;9.25;;;;;;;8.79;65.63;93519.72;4949345;28;21084;-75
2021/01/11 08:00:00;;;;;;;12.73;8.40;;;;;;;8.84;65.91;93536.25;4968821;28;20444;-76
2021/01/11 08:02:27;;;;;;;15.30;9.40;;;;;;;8.91;65.76;93541.94;4953198;28;20515;-76
2021/01/11 08:04:52;;;;;;;11.23;8.85;;;;;;;8.93;65.76;93539.03;4951132;28;20650;-76
2021/01/11 08:07:26;;;;;;;12.38;9.73;;;;;;;9.00;65.45;93556.03;4948573;28;20042;-75
2021/01/11 08:09:55;;;;;;;10.45;9.30;;;;;;;8.98;65.29;93558.19;4950545;28;20108;-75
2021/01/11 08:12:20;;;;;;;11.32;9.73;;;;;;;8.94;65.36;93553.78;4954354;28;20042;-75
2021/01/11 08:14:47;;;;;;;10.80;9.23;;;;;;;8.92;65.01;93548.00;4950781;28;20035;-76
2021/01/11 08:17:21;;;;;;;11.02;9.38;;;;;;;8.89;65.58;93543.28;4951253;28;20093;-75
2021/01/11 08:19:54;;;;;;;16.65;13.35;;;;;;;8.95;65.14;93552.69;4949545;28;20074;-76
2021/01/11 08:22:20;;;;;;;17.75;13.73;;;;;;;8.91;65.33;93557.75;4952809;28;20450;-75
2021/01/11 08:24:50;;;;;;;11.98;10.05;;;;;;;8.93;65.23;93560.88;4953157;28;20051;-75
2021/01/11 08:27:43;;;;;;;10.23;8.35;;;;;;;8.93;64.93;93568.78;4951794;28;20157;-75
2021/01/11 08:30:12;;;;;;;10.77;8.38;;;;;;;8.91;64.91;93567.50;4953313;28;20130;-76
2021/01/11 08:32:40;;;;;;;20.30;13.13;;;;;;;8.93;65.38;93579.34;4953800;28;20057;-77
2021/01/11 08:35:11;;;;;;;12.00;8.70;;;;;;;8.97;65.24;93590.88;4952751;28;20049;-76
2021/01/11 08:37:36;;;;;;;11.98;9.07;;;;;;;9.00;65.19;93582.41;4951161;28;20038;-76
2021/01/11 08:40:11;;;;;;;16.45;10.45;;;;;;;9.02;64.93;93580.28;4951582;28;20041;-76
2021/01/11 08:42:38;;;;;;;16.67;11.23;;;;;;;9.02;65.16;93577.63;4948440;28;20050;-76
2021/01/11 08:45:33;;;;;;;20.13;13.13;;;;;;;9.14;64.93;93609.63;4952179;28;20799;-75
2021/01/11 08:48:09;;;;;;;18.55;12.23;;;;;;;9.19;64.96;93610.66;4953192;28;20146;-76
2021/01/11 08:50:39;;;;;;;14.48;10.27;;;;;;;9.26;64.61;93600.50;4956708;28;20018;-76
2021/01/11 08:53:26;;;;;;;18.40;12.02;;;;;;;9.25;64.26;93609.50;4950629;28;20050;-75
2021/01/11 08:56:00;;;;;;;15.93;12.77;;;;;;;9.24;64.55;93623.72;4949796;28;20038;-76
2021/01/11 08:58:26;;;;;;;15.35;12.50;;;;;;;9.14;64.54;93629.91;4967472;28;20222;-75
2021/01/11 09:01:26;;;;;;;17.48;13.60;;;;;;;9.12;64.52;93632.06;4948957;28;20093;-76
2021/01/11 09:03:58;;;;;;;15.50;12.82;;;;;;;9.08;64.83;93620.53;4949251;28;20524;-75
2021/01/11 09:06:41;;;;;;;15.18;13.18;;;;;;;9.14;64.72;93628.06;4945366;28;20498;-75
2021/01/11 09:09:15;;;;;;;17.48;14.80;;;;;;;9.19;64.77;93611.41;4952298;28;20603;-76
2021/01/11 09:11:42;;;;;;;20.42;15.80;;;;;;;9.27;65.03;93602.09;4954148;28;20022;-76
2021/01/11 09:14:14;;;;;;;21.92;18.25;;;;;;;9.33;65.01;93598.31;4951020;28;20034;-75
2021/01/11 09:16:44;;;;;;;28.25;21.45;;;;;;;9.37;64.90;93613.28;4948267;28;20514;-76
2021/01/11 09:19:12;;;;;;;20.35;15.38;;;;;;;9.37;65.14;93607.22;4954356;28;20783;-76
2021/01/11 09:21:39;;;;;;;19.73;14.60;;;;;;;9.36;64.72;93614.34;4952307;28;20043;-76
2021/01/11 09:24:06;;;;;;;20.88;15.93;;;;;;;9.35;64.76;93604.88;4949702;28;20728;-75
2021/01/11 09:26:35;;;;;;;21.88;15.68;;;;;;;9.43;64.61;93611.38;4955232;28;20031;-76
2021/01/11 09:29:02;;;;;;;21.98;15.00;;;;;;;9.41;64.30;93609.00;4949154;28;20602;-76
2021/01/11 09:31:28;;;;;;;16.83;12.52;;;;;;;9.44;64.74;93618.19;4953373;28;20061;-76
2021/01/11 09:33:53;;;;;;;17.38;13.48;;;;;;;9.45;64.38;93614.50;4951749;28;20487;-75
2021/01/11 09:36:20;;;;;;;17.65;12.70;;;;;;;9.45;64.41;93619.75;4952521;28;20042;-77
2021/01/11 09:38:47;;;;;;;21.25;15.45;;;;;;;9.39;64.71;93616.41;4961687;28;20045;-77
2021/01/11 09:41:13;;;;;;;18.42;15.52;;;;;;;9.35;64.48;93614.63;4951063;28;20051;-74
2021/01/11 09:43:38;;;;;;;16.63;14.70;;;;;;;9.33;64.62;93629.97;4954503;28;20043;-77
2021/01/11 09:46:04;;;;;;;14.82;11.20;;;;;;;9.39;64.81;93619.03;4954707;28;20074;-78
2021/01/11 09:48:29;;;;;;;15.52;12.90;;;;;;;9.37;64.94;93615.94;4952993;28;20050;-79
2021/01/11 09:50:55;;;;;;;17.08;13.77;;;;;;;9.50;64.81;93612.56;4954106;28;20534;-77
2021/01/11 09:53:20;;;;;;;17.45;13.00;;;;;;;9.53;65.00;93616.47;4956784;28;20028;-77
2021/01/11 09:55:45;;;;;;;13.43;10.38;;;;;;;9.50;65.06;93601.22;4952212;28;20061;-74
2021/01/11 09:58:17;;;;;;;14.88;12.13;;;;;;;9.57;64.59;93612.22;4954418;28;20047;-77
2021/01/11 10:00:43;;;;;;;15.10;11.88;;;;;;;9.61;64.27;93605.28;4953181;28;20043;-78
2021/01/11 10:03:09;;;;;;;14.18;11.90;;;;;;;9.65;64.10;93618.69;4950280;28;20023;-78
2021/01/11 10:05:35;;;;;;;19.67;14.00;;;;;;;9.62;64.18;93624.53;4954369;28;20034;-77
2021/01/11 10:08:01;;;;;;;25.08;16.27;;;;;;;9.63;64.49;93615.56;4954914;28;20121;-77
2021/01/11 10:10:27;;;;;;;30.77;19.00;;;;;;;9.66;64.34;93602.56;4953200;28;20100;-77
2021/01/11 10:12:53;;;;;;;29.77;19.05;;;;;;;9.81;64.38;93602.34;4956470;28;20129;-78
2021/01/11 10:15:18;;;;;;;66.88;22.45;;;;;;;10.00;64.16;93605.72;4952784;28;20130;-77
2021/01/11 10:17:44;;;;;;;26.42;19.10;;;;;;;10.07;64.04;93600.06;4959467;28;20026;-75
2021/01/11 10:20:10;;;;;;;24.95;16.80;;;;;;;10.09;64.09;93589.22;4953865;28;20399;-77
2021/01/11 10:22:36;;;;;;;26.65;19.50;;;;;;;10.08;63.75;93585.78;4970209;28;20050;-74
2021/01/11 10:25:03;;;;;;;22.77;18.17;;;;;;;10.07;63.38;93591.38;4953245;28;20038;-75
2021/01/11 10:27:32;;;;;;;24.52;18.02;;;;;;;10.09;62.87;93590.00;4954575;28;20046;-77
2021/01/11 10:29:58;;;;;;;29.63;22.17;;;;;;;10.11;62.61;93573.88;4958409;28;20030;-76
2021/01/11 10:32:24;;;;;;;26.42;20.88;;;;;;;10.16;62.80;93576.47;4971550;28;20023;-74
2021/01/11 10:34:50;;;;;;;26.10;20.33;;;;;;;10.19;62.55;93576.66;4954584;28;20120;-74
2021/01/11 10:37:15;;;;;;;28.48;20.50;;;;;;;10.25;62.54;93580.00;4949911;28;20168;-78
2021/01/11 10:39:41;;;;;;;21.23;16.85;;;;;;;10.16;62.46;93581.75;4957647;28;20043;-78
2021/01/11 10:42:06;;;;;;;22.40;16.10;;;;;;;10.16;62.05;93589.69;4958714;28;20035;-77
2021/01/11 10:44:32;;;;;;;26.52;18.63;;;;;;;10.15;62.56;93586.22;4961183;28;20113;-76
2021/01/11 10:47:01;;;;;;;39.95;29.58;;;;;;;10.07;63.26;93584.22;4962922;28;20168;-79
2021/01/11 10:49:30;;;;;;;33.05;23.48;;;;;;;10.04;63.79;93599.88;4960298;28;20053;-77
2021/01/11 10:51:56;;;;;;;32.90;24.55;;;;;;;10.02;63.62;93594.88;4961091;28;20574;-78
2021/01/11 10:54:23;;;;;;;37.63;28.35;;;;;;;9.88;63.73;93602.75;4957362;28;20566;-78
2021/01/11 10:56:50;;;;;;;39.63;27.40;;;;;;;9.80;63.85;93615.81;4963450;28;20026;-78
2021/01/11 10:59:17;;;;;;;38.35;27.42;;;;;;;9.74;64.17;93575.53;4951316;28;20057;-76
2021/01/11 11:01:42;;;;;;;33.60;27.25;;;;;;;9.72;64.37;93569.00;4960677;28;20050;-80
2021/01/11 11:04:08;;;;;;;37.35;27.20;;;;;;;9.74;64.27;93574.75;4964656;28;20514;-79
2021/01/11 11:06:33;;;;;;;30.50;25.40;;;;;;;9.66;64.40;93565.66;4959462;28;20130;-79
2021/01/11 11:08:59;;;;;;;33.90;24.90;;;;;;;9.65;64.44;93590.44;4961095;28;20022;-79
2021/01/11 11:11:24;;;;;;;71.95;46.72;;;;;;;9.53;65.07;93600.66;4962676;28;20035;-79
2021/01/11 11:13:49;;;;;;;96.05;61.33;;;;;;;9.53;64.93;93606.72;4957892;28;20546;-79
2021/01/11 11:16:15;;;;;;;118.78;67.45;;;;;;;9.47;65.06;93617.63;4960954;28;20041;-79
2021/01/11 11:18:42;;;;;;;98.88;65.28;;;;;;;9.28;65.55;93627.41;4979074;28;20129;-75
2021/01/11 11:21:09;;;;;;;84.97;55.70;;;;;;;9.21;65.68;93609.28;4963030;28;20026;-77
2021/01/11 11:23:35;;;;;;;48.97;32.70;;;;;;;9.14;65.65;93580.63;4962890;28;20050;-76
2021/01/11 11:26:01;;;;;;;32.45;23.50;;;;;;;9.06;65.16;93596.28;4957181;28;20037;-78
2021/01/11 11:28:31;;;;;;;44.67;30.17;;;;;;;9.21;65.04;93592.66;4968700;28;20042;-80
2021/01/11 11:30:57;;;;;;;37.58;27.23;;;;;;;9.18;65.40;93562.41;4961182;28;20062;-77
2021/01/11 11:33:23;;;;;;;29.95;20.35;;;;;;;9.35;65.10;93567.16;4964562;28;20030;-78
2021/01/11 11:35:49;;;;;;;60.75;37.13;;;;;;;9.38;64.33;93563.97;4966125;28;20028;-77
2021/01/11 11:38:14;;;;;;;21.17;15.52;;;;;;;9.43;64.50;93559.38;4963626;28;20034;-77
2021/01/11 11:40:41;;;;;;;11.32;9.02;;;;;;;9.61;64.13;93586.03;4960854;28;20049;-78
2021/01/11 11:43:16;;;;;;;13.48;10.23;;;;;;;9.55;63.95;93598.53;4962398;28;20515;-79